createdAt,value
2018-12-15T00:02:11.273Z,69.72
2018-12-15T00:04:37.501Z,69.96
2018-12-15T00:07:03.762Z,69.97
2018-12-15T00:09:29.913Z,69.37
2018-12-15T00:11:56.185Z,69.73
2018-12-15T00:14:22.325Z,69.75
2018-12-15T00:16:48.470Z,69.65
2018-12-15T00:19:14.653Z,69.79
2018-12-15T00:21:40.890Z,70.44
2018-12-15T00:24:07.037Z,71.63
2018-12-15T00:26:33.379Z,71.16
2018-12-15T00:28:59.590Z,70.80
2018-12-15T00:31:25.835Z,70.53
2018-12-15T00:33:52.077Z,71.74
2018-12-15T00:36:18.193Z,71.32
2018-12-15T00:38:44.501Z,71.08
2018-12-15T00:41:10.661Z,70.01
2018-12-15T00:43:36.801Z,69.95
2018-12-15T00:46:02.982Z,70.66
2018-12-15T00:48:29.226Z,70.20
2018-12-15T00:50:55.435Z,70.38
2018-12-15T00:53:21.681Z,70.56
2018-12-15T00:55:47.837Z,70.22
2018-12-15T00:58:14.429Z,69.91
2018-12-15T01:00:41.151Z,70.04
2018-12-15T01:03:07.329Z,70.27
2018-12-15T01:05:33.492Z,69.90
2018-12-15T01:07:59.653Z,69.09
2018-12-15T01:10:25.825Z,68.92
2018-12-15T01:12:52.117Z,69.63
2018-12-15T01:15:20.446Z,69.72
2018-12-15T01:17:46.649Z,69.49
2018-12-15T01:20:12.794Z,69.92
2018-12-15T01:22:39.078Z,69.38
2018-12-15T01:25:05.307Z,69.47
2018-12-15T01:27:31.500Z,69.30
2018-12-15T01:29:57.673Z,70.11
2018-12-15T01:32:24.181Z,70.16
2018-12-15T01:34:50.314Z,70.33
2018-12-15T01:37:16.472Z,70.21
2018-12-15T01:39:42.879Z,71.27
2018-12-15T01:42:09.073Z,71.07
2018-12-15T01:44:35.332Z,70.92
2018-12-15T01:47:01.561Z,70.06
2018-12-15T01:49:27.760Z,70.24
2018-12-15T01:51:54.016Z,70.20
2018-12-15T01:54:20.468Z,70.72
2018-12-15T01:56:46.676Z,70.84
2018-12-15T01:59:12.870Z,70.17
2018-12-15T02:01:39.132Z,70.05
2018-12-15T02:04:05.359Z,70.26
2018-12-15T02:06:31.557Z,69.52
2018-12-15T02:08:57.787Z,69.22
2018-12-15T02:11:23.938Z,69.01
2018-12-15T02:13:50.072Z,69.20
2018-12-15T02:16:16.296Z,69.22
2018-12-15T02:18:42.438Z,69.60
2018-12-15T02:21:08.748Z,69.14
2018-12-15T02:23:34.978Z,69.42
2018-12-15T02:26:01.124Z,72.26
2018-12-15T02:28:27.432Z,72.32
2018-12-15T02:30:53.584Z,73.19
2018-12-15T02:33:19.733Z,74.97
2018-12-15T02:35:46.104Z,75.30
2018-12-15T02:38:12.304Z,75.37
2018-12-15T02:40:38.427Z,75.49
2018-12-15T02:43:04.570Z,74.65
2018-12-15T02:45:31.198Z,74.13
2018-12-15T02:47:57.463Z,73.41
2018-12-15T02:50:23.596Z,72.52
2018-12-15T02:52:49.915Z,73.34
2018-12-15T02:55:16.057Z,72.63
2018-12-15T02:57:42.335Z,72.60
2018-12-15T03:00:08.565Z,72.16
2018-12-15T03:02:34.829Z,72.33
2018-12-15T03:05:00.973Z,72.57
2018-12-15T03:07:27.282Z,74.09
2018-12-15T03:09:53.713Z,74.37
2018-12-15T03:12:19.944Z,74.29
2018-12-15T03:14:46.172Z,74.30
2018-12-15T03:17:12.333Z,72.79
2018-12-15T03:19:38.477Z,72.90
2018-12-15T03:22:04.824Z,72.62
2018-12-15T03:24:31.049Z,72.69
2018-12-15T03:26:57.212Z,72.28
2018-12-15T03:29:23.538Z,71.57
2018-12-15T03:31:49.729Z,71.12
2018-12-15T03:34:16.110Z,70.19
2018-12-15T03:36:42.281Z,70.32
2018-12-15T03:39:08.530Z,69.88
2018-12-15T03:41:34.757Z,69.57
2018-12-15T03:44:00.994Z,69.49
2018-12-15T03:46:27.246Z,70.51
2018-12-15T03:48:53.377Z,70.99
2018-12-15T03:51:19.571Z,70.91
2018-12-15T03:53:45.719Z,70.58
2018-12-15T03:56:11.922Z,69.84
2018-12-15T03:58:38.158Z,69.37
2018-12-15T04:01:04.337Z,69.07
2018-12-15T04:03:30.605Z,68.72
2018-12-15T04:05:56.770Z,69.17
2018-12-15T04:08:23.062Z,69.78
2018-12-15T04:10:49.292Z,69.62
2018-12-15T04:13:22.472Z,69.49
2018-12-15T04:15:48.711Z,69.72
2018-12-15T04:18:14.966Z,70.11
2018-12-15T04:20:41.195Z,69.79
2018-12-15T04:23:07.338Z,69.86
2018-12-15T04:25:33.484Z,69.62
2018-12-15T04:27:59.667Z,69.20
2018-12-15T04:30:25.873Z,69.23
2018-12-15T04:32:52.129Z,68.80
2018-12-15T04:35:18.295Z,69.62
2018-12-15T04:37:44.549Z,69.27
2018-12-15T04:40:11.037Z,69.32
2018-12-15T04:42:37.204Z,69.35
2018-12-15T04:45:04.171Z,69.44
2018-12-15T04:47:30.693Z,69.66
2018-12-15T04:49:56.951Z,69.79
2018-12-15T04:52:23.180Z,69.80
2018-12-15T04:54:49.345Z,70.17
2018-12-15T04:57:15.574Z,69.59
2018-12-15T04:59:41.829Z,69.17
2018-12-15T05:02:08.093Z,69.84
2018-12-15T05:04:34.283Z,69.31
2018-12-15T05:07:00.411Z,68.79
2018-12-15T05:09:26.552Z,68.75
2018-12-15T05:11:52.716Z,68.55
2018-12-15T05:14:18.992Z,68.56
2018-12-15T05:16:45.126Z,68.65
2018-12-15T05:19:11.448Z,69.02
2018-12-15T05:21:37.707Z,69.57
2018-12-15T05:24:03.833Z,69.47
2018-12-15T05:26:30.128Z,70.40
2018-12-15T05:28:56.368Z,70.07
2018-12-15T05:31:22.492Z,70.70
2018-12-15T05:33:48.658Z,69.95
2018-12-15T05:36:14.813Z,71.16
2018-12-15T05:38:41.067Z,73.62
2018-12-15T05:41:07.264Z,73.28
2018-12-15T05:43:33.390Z,72.57
2018-12-15T05:45:59.541Z,71.96
2018-12-15T05:48:25.705Z,71.66
2018-12-15T05:50:52.031Z,71.58
2018-12-15T05:53:18.226Z,72.05
2018-12-15T05:55:44.409Z,72.05
2018-12-15T05:58:10.715Z,71.90
2018-12-15T06:00:37.100Z,72.30
2018-12-15T06:03:03.375Z,72.61
2018-12-15T06:05:29.649Z,73.65
2018-12-15T06:07:55.831Z,74.17
2018-12-15T06:10:22.029Z,73.90
2018-12-15T06:12:48.287Z,75.10
2018-12-15T06:15:14.432Z,74.56
2018-12-15T06:17:40.604Z,74.13
2018-12-15T06:20:13.697Z,73.76
2018-12-15T06:22:39.920Z,74.31
2018-12-15T06:25:06.126Z,73.66
2018-12-15T06:27:32.377Z,73.30
2018-12-15T06:29:58.611Z,72.71
2018-12-15T06:32:24.792Z,72.65
2018-12-15T06:34:50.949Z,71.81
2018-12-15T06:37:17.110Z,71.17
2018-12-15T06:39:43.281Z,70.64
2018-12-15T06:42:09.458Z,71.14
2018-12-15T06:44:35.768Z,71.23
2018-12-15T06:47:01.946Z,70.54
2018-12-15T06:49:28.659Z,70.55
2018-12-15T06:51:54.895Z,70.43
2018-12-15T06:54:21.122Z,69.88
2018-12-15T06:56:47.268Z,70.17
2018-12-15T06:59:13.552Z,69.51
2018-12-15T07:01:39.754Z,69.12
2018-12-15T07:04:05.889Z,69.24
2018-12-15T07:06:32.051Z,69.22
2018-12-15T07:08:58.206Z,68.48
2018-12-15T07:11:24.372Z,69.19
2018-12-15T07:13:50.740Z,68.76
2018-12-15T07:16:16.902Z,68.47
2018-12-15T07:18:45.010Z,68.23
2018-12-15T07:21:11.373Z,68.78
2018-12-15T07:23:37.553Z,68.53
2018-12-15T07:26:03.894Z,67.65
2018-12-15T07:28:30.127Z,68.02
2018-12-15T07:30:56.297Z,68.91
2018-12-15T07:33:22.609Z,70.75
2018-12-15T07:35:48.837Z,72.23
2018-12-15T07:38:14.994Z,72.49
2018-12-15T07:40:41.293Z,72.30
2018-12-15T07:43:07.481Z,71.15
2018-12-15T07:45:33.716Z,70.04
2018-12-15T07:47:59.976Z,71.45
2018-12-15T07:50:26.146Z,72.25
2018-12-15T07:52:52.314Z,72.52
2018-12-15T07:55:18.624Z,71.78
2018-12-15T07:57:44.886Z,70.25
2018-12-15T08:00:11.318Z,69.31
2018-12-15T08:02:37.499Z,68.87
2018-12-15T08:05:04.501Z,67.51
2018-12-15T08:07:30.792Z,65.37
2018-12-15T08:09:58.977Z,64.37
2018-12-15T08:12:31.271Z,63.04
2018-12-15T08:14:57.495Z,62.61
2018-12-15T08:17:23.647Z,62.97
2018-12-15T08:19:49.921Z,63.44
2018-12-15T08:22:16.073Z,63.60
2018-12-15T08:24:42.373Z,63.28
2018-12-15T08:27:08.602Z,62.60
2018-12-15T08:29:34.766Z,63.20
2018-12-15T08:32:00.910Z,63.37
2018-12-15T08:34:27.101Z,63.37
2018-12-15T08:36:53.253Z,63.45
2018-12-15T08:39:19.533Z,62.49
2018-12-15T08:41:45.709Z,63.08
2018-12-15T08:44:12.023Z,62.88
2018-12-15T08:46:38.219Z,63.11
2018-12-15T08:49:04.717Z,64.08
2018-12-15T08:51:31.916Z,64.15
2018-12-15T08:53:58.105Z,65.16
2018-12-15T08:56:24.282Z,66.28
2018-12-15T08:58:50.427Z,64.83
2018-12-15T09:01:16.581Z,65.29
2018-12-15T09:03:42.746Z,66.44
2018-12-15T09:06:09.095Z,65.93
2018-12-15T09:08:35.323Z,66.94
2018-12-15T09:11:01.485Z,65.53
2018-12-15T09:13:27.781Z,66.01
2018-12-15T09:15:53.976Z,66.10
2018-12-15T09:18:20.142Z,66.36
2018-12-15T09:20:46.462Z,66.03
2018-12-15T09:23:12.690Z,65.84
2018-12-15T09:25:38.849Z,66.62
2018-12-15T09:28:05.145Z,67.34
2018-12-15T09:30:31.303Z,68.86
2018-12-15T09:32:57.601Z,69.43
2018-12-15T09:35:23.827Z,67.81
2018-12-15T09:37:49.997Z,68.70
2018-12-15T09:40:16.186Z,70.99
2018-12-15T09:42:42.305Z,74.06
2018-12-15T09:45:08.535Z,72.70
2018-12-15T09:47:34.721Z,72.72
2018-12-15T09:50:00.990Z,72.72
2018-12-15T09:52:27.218Z,73.49
2018-12-15T09:54:53.373Z,73.38
2018-12-15T09:57:19.492Z,74.70
2018-12-15T09:59:45.636Z,74.11
2018-12-15T10:02:11.813Z,74.56
2018-12-15T10:04:38.026Z,75.24
2018-12-15T10:07:04.325Z,76.41
2018-12-15T10:09:30.517Z,74.94
2018-12-15T10:11:56.722Z,73.64
2018-12-15T10:14:22.848Z,75.00
2018-12-15T10:16:49.041Z,75.89
2018-12-15T10:19:15.450Z,74.79
2018-12-15T10:21:41.615Z,74.58
2018-12-15T10:24:07.789Z,74.70
2018-12-15T10:26:33.941Z,73.12
2018-12-15T10:29:00.093Z,73.65
2018-12-15T10:31:32.301Z,74.44
2018-12-15T10:33:58.434Z,74.07
2018-12-15T10:36:24.600Z,73.07
2018-12-15T10:38:50.870Z,74.41
2018-12-15T10:41:17.070Z,74.86
2018-12-15T10:43:43.326Z,74.50
2018-12-15T10:46:09.568Z,72.54
2018-12-15T10:48:35.701Z,71.45
2018-12-15T10:51:01.877Z,69.99
2018-12-15T10:53:28.052Z,68.50
2018-12-15T10:55:54.211Z,70.19
2018-12-15T10:58:20.368Z,71.83
2018-12-15T11:00:52.536Z,72.68
2018-12-15T11:03:18.686Z,71.50
2018-12-15T11:05:44.829Z,72.08
2018-12-15T11:08:11.049Z,72.27
2018-12-15T11:10:37.197Z,73.22
2018-12-15T11:13:03.368Z,72.63
2018-12-15T11:15:29.558Z,73.93
2018-12-15T11:17:55.697Z,74.33
2018-12-15T11:20:21.864Z,74.49
2018-12-15T11:22:48.028Z,73.63
2018-12-15T11:25:14.173Z,74.46
2018-12-15T11:27:40.305Z,74.29
2018-12-15T11:30:06.745Z,73.99
2018-12-15T11:32:32.900Z,73.73
2018-12-15T11:34:59.057Z,73.56
2018-12-15T11:37:25.258Z,73.08
2018-12-15T11:39:51.416Z,74.43
2018-12-15T11:42:17.573Z,73.62
2018-12-15T11:44:43.742Z,72.49
2018-12-15T11:47:09.861Z,72.87
2018-12-15T11:49:35.998Z,75.40
2018-12-15T11:52:02.197Z,76.48
2018-12-15T11:54:28.355Z,75.59
2018-12-15T11:56:54.564Z,76.16
2018-12-15T11:59:20.725Z,75.35
2018-12-15T12:01:46.870Z,75.17
2018-12-15T12:04:13.013Z,74.55
2018-12-15T12:06:39.180Z,73.29
2018-12-15T12:09:05.348Z,74.33
2018-12-15T12:11:31.693Z,73.54
2018-12-15T12:14:00.483Z,72.30
2018-12-15T12:16:26.175Z,72.57
2018-12-15T12:18:52.427Z,72.33
2018-12-15T12:21:18.594Z,71.68
2018-12-15T12:23:44.914Z,71.90
2018-12-15T12:26:11.077Z,70.84
2018-12-15T12:28:37.368Z,71.77
2018-12-15T12:31:03.519Z,72.35
2018-12-15T12:33:29.661Z,72.31
2018-12-15T12:35:55.907Z,71.77
2018-12-15T12:38:22.249Z,70.17
2018-12-15T12:40:48.400Z,68.83
2018-12-15T12:43:14.606Z,67.90
2018-12-15T12:45:40.762Z,67.55
2018-12-15T12:48:07.025Z,67.93
2018-12-15T12:50:33.198Z,68.63
2018-12-15T12:52:59.341Z,69.07
2018-12-15T12:55:25.477Z,67.90
2018-12-15T12:57:51.641Z,69.93
2018-12-15T13:00:17.781Z,69.57
2018-12-15T13:02:43.930Z,68.36
2018-12-15T13:05:10.217Z,67.87
2018-12-15T13:07:36.399Z,68.04
2018-12-15T13:10:03.404Z,68.56
2018-12-15T13:12:29.605Z,68.08
2018-12-15T13:14:55.774Z,67.34
2018-12-15T13:17:22.026Z,67.80
2018-12-15T13:19:48.238Z,67.90
2018-12-15T13:22:14.370Z,69.68
2018-12-15T13:24:40.528Z,70.02
2018-12-15T13:27:06.741Z,72.03
2018-12-15T13:29:32.882Z,71.44
2018-12-15T13:31:59.025Z,70.01
2018-12-15T13:34:25.242Z,70.34
2018-12-15T13:36:51.394Z,70.12
2018-12-15T13:39:17.541Z,69.22
2018-12-15T13:41:43.744Z,69.99
2018-12-15T13:44:09.890Z,71.19
2018-12-15T13:46:36.021Z,70.75
2018-12-15T13:49:02.249Z,71.02
2018-12-15T13:51:28.408Z,73.53
2018-12-15T13:53:54.561Z,74.49
2018-12-15T13:56:20.742Z,76.30
2018-12-15T13:58:47.021Z,74.61
2018-12-15T14:01:13.153Z,73.97
2018-12-15T14:03:39.335Z,75.11
2018-12-15T14:06:05.474Z,74.74
2018-12-15T14:08:31.601Z,75.28
2018-12-15T14:10:57.790Z,75.45
2018-12-15T14:13:23.949Z,75.69
2018-12-15T14:15:50.338Z,75.79
2018-12-15T14:18:16.646Z,75.16
2018-12-15T14:20:42.793Z,75.09
2018-12-15T14:23:09.142Z,74.56
2018-12-15T14:25:35.342Z,75.59
2018-12-15T14:28:01.472Z,75.70
2018-12-15T14:30:28.510Z,76.34
2018-12-15T14:32:54.709Z,77.22
2018-12-15T14:35:20.857Z,76.68
2018-12-15T14:37:47.292Z,78.03
2018-12-15T14:40:13.462Z,77.31
2018-12-15T14:42:39.621Z,77.50
2018-12-15T14:45:06.030Z,77.78
2018-12-15T14:47:32.194Z,77.01
2018-12-15T14:49:58.348Z,76.61
2018-12-15T14:52:25.538Z,75.80
2018-12-15T14:54:51.710Z,75.28
2018-12-15T14:57:19.893Z,76.00
2018-12-15T14:59:46.025Z,76.03
2018-12-15T15:02:12.223Z,75.67
2018-12-15T15:04:38.448Z,75.40
2018-12-15T15:07:04.617Z,74.40
2018-12-15T15:09:30.797Z,74.38
2018-12-15T15:11:56.948Z,74.99
2018-12-15T15:14:23.085Z,75.86
2018-12-15T15:16:49.253Z,74.84
2018-12-15T15:19:15.376Z,74.78
2018-12-15T15:21:41.516Z,75.10
2018-12-15T15:24:07.787Z,75.60
2018-12-15T15:26:35.069Z,74.67
2018-12-15T15:29:01.458Z,74.72
2018-12-15T15:31:27.627Z,74.94
2018-12-15T15:33:53.770Z,76.82
2018-12-15T15:36:19.921Z,74.85
2018-12-15T15:38:46.104Z,76.09
2018-12-15T15:41:12.269Z,74.40
2018-12-15T15:43:38.416Z,74.39
2018-12-15T15:46:04.616Z,75.87
2018-12-15T15:48:30.779Z,77.14
2018-12-15T15:50:56.952Z,77.10
2018-12-15T15:53:30.130Z,76.92
2018-12-15T15:55:56.321Z,76.90
2018-12-15T15:58:22.513Z,76.99
2018-12-15T16:00:49.020Z,76.31
2018-12-15T16:03:15.450Z,75.77
2018-12-15T16:05:41.680Z,75.99
2018-12-15T16:08:08.113Z,76.86
2018-12-15T16:10:34.764Z,76.35
2018-12-15T16:13:01.165Z,76.44
2018-12-15T16:15:27.341Z,75.94
2018-12-15T16:17:53.840Z,75.26
2018-12-15T16:20:20.312Z,75.87
2018-12-15T16:22:46.706Z,75.35
2018-12-15T16:25:12.935Z,76.07
2018-12-15T16:27:39.162Z,76.62
2018-12-15T16:30:07.238Z,76.18
2018-12-15T16:32:33.461Z,74.75
2018-12-15T16:34:59.636Z,75.39
2018-12-15T16:37:25.805Z,76.06
2018-12-15T16:39:52.122Z,75.32
2018-12-15T16:42:18.281Z,75.48
2018-12-15T16:44:44.457Z,77.13
2018-12-15T16:47:10.608Z,77.02
2018-12-15T16:49:36.853Z,77.62
2018-12-15T16:52:10.185Z,76.39
2018-12-15T16:54:36.330Z,76.18
2018-12-15T16:57:02.501Z,75.74
2018-12-15T16:59:28.954Z,75.96
2018-12-15T17:01:55.346Z,77.55
2018-12-15T17:04:22.032Z,77.06
2018-12-15T17:06:48.671Z,76.45
2018-12-15T17:09:15.307Z,76.55
2018-12-15T17:11:41.708Z,75.40
2018-12-15T17:14:07.864Z,76.22
2018-12-15T17:16:34.150Z,76.87
2018-12-15T17:19:01.053Z,77.54
2018-12-15T17:21:27.817Z,75.99
2018-12-15T17:23:53.957Z,76.11
2018-12-15T17:26:20.098Z,76.18
2018-12-15T17:28:46.264Z,76.43
2018-12-15T17:31:12.436Z,77.42
2018-12-15T17:33:38.605Z,76.98
2018-12-15T17:36:05.011Z,76.12
2018-12-15T17:38:31.401Z,77.46
2018-12-15T17:40:57.637Z,78.61
2018-12-15T17:43:23.875Z,78.52
2018-12-15T17:45:50.025Z,77.73
2018-12-15T17:48:16.429Z,77.02
2018-12-15T17:50:42.605Z,77.23
2018-12-15T17:53:09.016Z,76.52
2018-12-15T17:55:35.209Z,76.70
2018-12-15T17:58:01.383Z,76.78
2018-12-15T18:00:27.665Z,77.07
2018-12-15T18:02:53.845Z,76.64
2018-12-15T18:05:20.154Z,76.19
2018-12-15T18:07:46.754Z,75.69
2018-12-15T18:10:13.194Z,76.69
2018-12-15T18:12:39.421Z,76.72
2018-12-15T18:15:06.045Z,76.21
2018-12-15T18:17:32.276Z,76.19
2018-12-15T18:19:58.544Z,75.59
2018-12-15T18:22:24.772Z,76.33
2018-12-15T18:24:50.945Z,77.03
2018-12-15T18:27:17.227Z,77.31
2018-12-15T18:29:43.455Z,76.32
2018-12-15T18:32:09.683Z,75.93
2018-12-15T18:34:35.914Z,75.99
2018-12-15T18:37:02.105Z,75.23
2018-12-15T18:39:28.371Z,75.46
2018-12-15T18:41:54.580Z,74.46
2018-12-15T18:46:57.085Z,73.79
2018-12-15T18:49:23.314Z,75.83
2018-12-15T18:51:49.541Z,76.00
2018-12-15T18:54:16.558Z,75.58
2018-12-15T18:56:43.021Z,75.42
2018-12-15T18:59:09.636Z,75.52
2018-12-15T19:01:35.881Z,76.41
2018-12-15T19:04:02.284Z,77.33
2018-12-15T19:06:28.447Z,76.57
2018-12-15T19:08:54.746Z,76.31
2018-12-15T19:11:20.901Z,75.68
2018-12-15T19:13:47.197Z,76.50
2018-12-15T19:16:13.425Z,75.75
2018-12-15T19:18:39.613Z,75.62
2018-12-15T19:21:05.881Z,75.98
2018-12-15T19:23:32.086Z,76.07
2018-12-15T19:25:58.270Z,76.26
2018-12-15T19:28:24.560Z,76.40
2018-12-15T19:30:50.745Z,77.05
2018-12-15T19:33:16.905Z,76.12
2018-12-15T19:35:43.249Z,76.50
2018-12-15T19:38:09.418Z,76.50
2018-12-15T19:40:35.737Z,76.78
2018-12-15T19:43:01.866Z,77.76
2018-12-15T19:45:28.052Z,78.18
2018-12-15T19:47:54.214Z,78.33
2018-12-15T19:50:20.412Z,77.39
2018-12-15T19:52:46.670Z,77.32
2018-12-15T19:55:12.821Z,76.36
2018-12-15T19:57:39.097Z,76.20
2018-12-15T20:00:07.366Z,76.32
2018-12-15T20:02:33.833Z,76.66
2018-12-15T20:04:59.986Z,76.95
2018-12-15T20:07:26.279Z,76.43
2018-12-15T20:09:52.930Z,77.53
2018-12-15T20:12:19.154Z,76.96
2018-12-15T20:14:45.357Z,78.00
2018-12-15T20:17:11.578Z,77.05
2018-12-15T20:19:37.806Z,76.97
2018-12-15T20:22:04.033Z,77.33
2018-12-15T20:24:30.186Z,76.37
2018-12-15T20:26:56.321Z,76.94
2018-12-15T20:29:22.749Z,77.76
2018-12-15T20:31:48.884Z,77.92
2018-12-15T20:34:15.177Z,78.67
2018-12-15T20:36:41.364Z,77.13
2018-12-15T20:39:07.494Z,77.37
2018-12-15T20:41:33.710Z,76.70
2018-12-15T20:44:00.116Z,76.59
2018-12-15T20:46:26.257Z,76.89
2018-12-15T20:48:52.409Z,77.21
2018-12-15T20:51:18.799Z,77.98
2018-12-15T20:53:45.029Z,78.09
2018-12-15T20:56:11.255Z,78.64
2018-12-15T20:58:37.455Z,77.58
2018-12-15T21:01:03.714Z,77.56
2018-12-15T21:03:29.938Z,76.79
2018-12-15T21:06:03.397Z,77.37
2018-12-15T21:08:29.610Z,78.35
2018-12-15T21:10:55.745Z,78.40
2018-12-15T21:13:21.910Z,78.04
2018-12-15T21:15:50.124Z,78.22
2018-12-15T21:18:16.317Z,77.04
2018-12-15T21:20:42.545Z,76.95
2018-12-15T21:23:08.774Z,77.00
2018-12-15T21:25:34.900Z,76.85
2018-12-15T21:28:01.228Z,77.43
2018-12-15T21:30:27.661Z,76.91
2018-12-15T21:32:53.889Z,76.43
2018-12-15T21:35:20.733Z,75.71
2018-12-15T21:37:47.368Z,74.90
2018-12-15T21:40:14.008Z,75.99
2018-12-15T21:42:40.848Z,75.66
2018-12-15T21:45:07.484Z,75.18
2018-12-15T21:47:34.124Z,74.82
2018-12-15T21:50:00.554Z,74.17
2018-12-15T21:52:26.961Z,73.73
2018-12-15T21:54:53.625Z,73.09
2018-12-15T21:57:19.813Z,72.94
2018-12-15T21:59:46.081Z,73.13
2018-12-15T22:02:12.309Z,73.35
2018-12-15T22:04:38.711Z,73.55
2018-12-15T22:07:04.853Z,72.81
2018-12-15T22:09:30.996Z,72.28
2018-12-15T22:11:57.629Z,72.50
2018-12-15T22:14:24.183Z,72.44
2018-12-15T22:16:52.045Z,72.42
2018-12-15T22:19:20.032Z,72.03
2018-12-15T22:21:46.432Z,71.79
2018-12-15T22:24:12.568Z,71.41
2018-12-15T22:26:38.859Z,71.18
2018-12-15T22:29:05.006Z,71.17
2018-12-15T22:31:31.343Z,70.94
2018-12-15T22:33:57.506Z,70.65
2018-12-15T22:36:25.195Z,71.23
2018-12-15T22:38:53.097Z,71.08
2018-12-15T22:41:19.735Z,70.70
2018-12-15T22:43:46.579Z,70.49
2018-12-15T22:46:12.749Z,71.10
2018-12-15T22:48:38.921Z,70.77
2018-12-15T22:51:05.231Z,71.21
2018-12-15T22:53:31.489Z,70.70
2018-12-15T22:55:57.687Z,70.49
2018-12-15T22:58:23.943Z,70.85
2018-12-15T23:00:56.429Z,71.05
2018-12-15T23:03:23.159Z,70.71
2018-12-15T23:05:49.356Z,71.26
2018-12-15T23:08:15.582Z,71.31
2018-12-15T23:10:41.744Z,71.03
2018-12-15T23:13:15.032Z,70.75
2018-12-15T23:15:41.182Z,70.40
2018-12-15T23:18:07.488Z,70.46
2018-12-15T23:20:33.925Z,69.85
2018-12-15T23:23:00.148Z,70.74
2018-12-15T23:25:26.328Z,71.12
2018-12-15T23:27:52.476Z,70.80
2018-12-15T23:30:18.742Z,71.51
2018-12-15T23:32:45.057Z,71.34
2018-12-15T23:35:11.492Z,71.60
2018-12-15T23:37:37.719Z,72.58
2018-12-15T23:40:05.356Z,74.39
2018-12-15T23:42:31.608Z,74.41
2018-12-15T23:44:58.013Z,74.49
2018-12-15T23:47:24.269Z,76.32
2018-12-15T23:49:50.404Z,75.78
2018-12-15T23:52:23.110Z,76.25
2018-12-15T23:54:44.751Z,76.66
2018-12-15T23:57:10.898Z,77.62
2018-12-15T23:59:37.250Z,76.96
